Vici, Oklahoma
Current Conditions -  °F | °C
As of 11:15 PM on Tuesday 25 Nov 2014 (Local Time) from KWWR Reporting Station
Clear Clear  
Wind Chill: 35°   Ceiling: Unl
Heat Index: 41°   Visibility: 10mi
Dew Point: 23°   Wind: 10mph
Humidity: 49%   Direction: 220°SW
Pressure: 29.96"   Gusts: NA
Location:  36.15°N, 99.3°W
Report Text: KWWR 260515Z AUTO 22009KT 10SM CLR 05/M05 A2996 RMK AO2
Loading
Personal Weather Stations






























Interactive Weather Map New forecast layout! Learn more

10-Day Weather Forecast

Advertisements
Track Severe Weather on mobile